createdAt,value
2023-04-22T00:00:17.071Z,76.16
2023-04-22T00:02:45.691Z,75.02
2023-04-22T00:05:17.062Z,73.85
2023-04-22T00:07:49.265Z,74.78
2023-04-22T00:10:17.456Z,74.58
2023-04-22T00:12:45.637Z,73.92
2023-04-22T00:15:13.798Z,75.03
2023-04-22T00:17:42.740Z,75.05
2023-04-22T00:20:13.544Z,75.76
2023-04-22T00:22:41.684Z,77.29
2023-04-22T00:25:11.579Z,78.21
2023-04-22T00:27:39.745Z,77.27
2023-04-22T00:30:09.727Z,76.15
2023-04-22T00:32:40.140Z,75.62
2023-04-22T00:35:09.784Z,75.25
2023-04-22T00:37:38.001Z,75.00
2023-04-22T00:40:07.538Z,74.60
2023-04-22T00:42:38.870Z,74.07
2023-04-22T00:45:11.906Z,73.88
2023-04-22T00:47:43.373Z,73.91
2023-04-22T00:50:11.642Z,74.82
2023-04-22T00:52:39.807Z,74.57
2023-04-22T00:55:09.174Z,74.23
2023-04-22T00:57:39.105Z,75.48
2023-04-22T01:00:11.116Z,76.24
2023-04-22T01:02:40.163Z,76.78
2023-04-22T01:05:09.958Z,77.06
2023-04-22T01:07:38.195Z,76.76
2023-04-22T01:10:07.289Z,77.11
2023-04-22T01:12:35.540Z,77.63
2023-04-22T01:15:08.928Z,77.41
2023-04-22T01:17:37.196Z,77.62
2023-04-22T01:20:05.818Z,77.27
2023-04-22T01:22:40.316Z,80.27
2023-04-22T01:25:11.204Z,79.53
2023-04-22T01:27:40.596Z,78.03
2023-04-22T01:30:10.361Z,77.11
2023-04-22T01:32:41.245Z,77.78
2023-04-22T01:35:10.063Z,78.18
2023-04-22T01:37:38.667Z,77.81
2023-04-22T01:40:10.827Z,79.01
2023-04-22T01:42:39.253Z,79.13
2023-04-22T01:45:08.441Z,78.73
2023-04-22T01:47:36.476Z,77.71
2023-04-22T01:50:04.918Z,78.70
2023-04-22T01:52:32.983Z,79.74
2023-04-22T01:55:02.706Z,79.05
2023-04-22T01:57:34.600Z,80.21
2023-04-22T02:00:03.092Z,80.79
2023-04-22T02:02:40.598Z,80.12
2023-04-22T02:05:09.757Z,80.08
2023-04-22T02:07:38.110Z,79.07
2023-04-22T02:10:07.027Z,78.28
2023-04-22T02:12:36.761Z,79.65
2023-04-22T02:15:05.794Z,79.29
2023-04-22T02:17:34.442Z,78.70
2023-04-22T02:20:03.170Z,78.14
2023-04-22T02:22:32.408Z,78.35
2023-04-22T02:25:03.355Z,78.99
2023-04-22T02:27:31.428Z,78.43
2023-04-22T02:30:00.916Z,80.18
2023-04-22T02:32:29.136Z,79.83
2023-04-22T02:34:59.889Z,78.68
2023-04-22T02:37:27.904Z,79.71
2023-04-22T02:39:56.496Z,79.60
2023-04-22T02:42:24.561Z,79.38
2023-04-22T02:44:53.023Z,78.60
2023-04-22T02:47:25.404Z,79.08
2023-04-22T02:49:53.467Z,80.34
2023-04-22T02:52:21.893Z,81.35
2023-04-22T02:54:49.946Z,83.04
2023-04-22T02:57:18.086Z,84.52
2023-04-22T02:59:46.660Z,84.75
2023-04-22T03:02:17.433Z,86.35
2023-04-22T03:05:07.793Z,85.20
2023-04-22T03:07:36.027Z,83.46
2023-04-22T03:10:04.354Z,84.36
2023-04-22T03:12:32.362Z,87.19
2023-04-22T03:15:00.703Z,87.94
2023-04-22T03:17:31.854Z,87.73
2023-04-22T03:20:02.096Z,86.78
2023-04-22T03:22:32.278Z,86.84
2023-04-22T03:25:02.566Z,89.14
2023-04-22T03:27:31.195Z,88.82
2023-04-22T03:29:59.285Z,88.29
2023-04-22T03:32:27.464Z,88.36
2023-04-22T03:35:14.066Z,88.39
2023-04-22T03:37:43.654Z,88.56
2023-04-22T03:40:15.353Z,87.57
2023-04-22T03:42:44.106Z,86.39
2023-04-22T03:45:12.690Z,85.59
2023-04-22T03:47:46.335Z,86.15
2023-04-22T03:50:23.023Z,87.74
2023-04-22T03:52:55.520Z,86.96
2023-04-22T03:55:24.400Z,85.78
2023-04-22T03:57:54.257Z,84.98
2023-04-22T04:00:22.337Z,83.08
2023-04-22T04:03:02.291Z,82.74
2023-04-22T04:05:31.659Z,83.42
2023-04-22T04:08:01.705Z,83.04
2023-04-22T04:10:30.404Z,82.78
2023-04-22T04:13:00.524Z,83.49
2023-04-22T04:15:35.584Z,82.77
2023-04-22T04:18:04.310Z,82.90
2023-04-22T04:20:34.420Z,84.45
2023-04-22T04:23:03.960Z,85.52
2023-04-22T04:25:38.425Z,84.55
2023-04-22T04:28:17.132Z,85.78
2023-04-22T04:30:45.254Z,86.13
2023-04-22T04:33:13.348Z,85.02
2023-04-22T04:35:44.870Z,84.12
2023-04-22T04:38:19.678Z,83.38
2023-04-22T04:40:52.728Z,82.49
2023-04-22T04:43:26.196Z,82.75
2023-04-22T04:46:17.712Z,82.59
2023-04-22T04:48:48.708Z,83.33
2023-04-22T04:51:18.234Z,84.14
2023-04-22T04:53:56.908Z,83.55
2023-04-22T04:56:27.168Z,82.72
2023-04-22T04:58:56.501Z,82.79
2023-04-22T05:01:27.671Z,84.05
2023-04-22T05:04:00.752Z,84.73
2023-04-22T05:06:28.984Z,84.42
2023-04-22T05:09:04.452Z,83.19
2023-04-22T05:11:32.447Z,83.87
2023-04-22T05:14:06.827Z,84.03
2023-04-22T05:16:39.999Z,83.11
2023-04-22T05:19:09.226Z,82.52
2023-04-22T05:21:37.518Z,82.81
2023-04-22T05:24:07.589Z,83.67
2023-04-22T05:26:35.785Z,83.17
2023-04-22T05:29:10.725Z,82.43
2023-04-22T05:31:43.794Z,82.42
2023-04-22T05:34:12.511Z,81.67
2023-04-22T05:36:43.389Z,82.54
2023-04-22T05:39:13.991Z,82.16
2023-04-22T05:41:44.153Z,82.53
2023-04-22T05:44:13.675Z,82.35
2023-04-22T05:46:41.655Z,81.66
2023-04-22T05:49:10.415Z,81.08
2023-04-22T05:52:14.089Z,80.66
2023-04-22T05:55:02.819Z,80.52
2023-04-22T05:57:33.740Z,80.93
2023-04-22T06:00:06.238Z,81.54
2023-04-22T06:02:42.720Z,80.75
2023-04-22T06:05:11.481Z,80.35
2023-04-22T06:07:39.680Z,80.34
2023-04-22T06:10:10.641Z,80.09
2023-04-22T06:12:42.232Z,79.15
2023-04-22T06:15:11.805Z,78.89
2023-04-22T06:17:44.781Z,78.77
2023-04-22T06:20:14.143Z,78.38
2023-04-22T06:22:44.765Z,78.05
2023-04-22T06:25:14.199Z,78.02
2023-04-22T06:27:45.248Z,77.40
2023-04-22T06:30:14.867Z,76.65
2023-04-22T06:32:42.845Z,76.70
2023-04-22T06:35:11.245Z,76.03
2023-04-22T06:37:39.718Z,75.65
2023-04-22T06:40:10.628Z,75.66
2023-04-22T06:42:58.649Z,74.79
2023-04-22T06:45:46.845Z,74.48
2023-04-22T06:48:35.077Z,73.93
2023-04-22T06:51:23.227Z,73.84
2023-04-22T06:53:52.029Z,74.01
2023-04-22T06:56:20.204Z,73.32
2023-04-22T06:58:50.074Z,72.65
2023-04-22T07:01:19.228Z,72.04
2023-04-22T07:03:48.696Z,73.25
2023-04-22T07:06:17.675Z,74.54
2023-04-22T07:08:46.015Z,71.87
2023-04-22T07:11:14.628Z,71.10
2023-04-22T07:14:05.938Z,70.55
2023-04-22T07:16:34.916Z,69.56
2023-04-22T07:19:04.704Z,70.47
2023-04-22T07:21:33.172Z,70.26
2023-04-22T07:24:01.255Z,69.34
2023-04-22T07:26:31.713Z,68.74
2023-04-22T07:29:00.227Z,68.46
2023-04-22T07:31:30.222Z,69.87
2023-04-22T07:33:59.528Z,68.58
2023-04-22T07:36:27.991Z,68.11
2023-04-22T07:38:57.889Z,66.85
2023-04-22T07:41:26.780Z,66.14
2023-04-22T07:44:00.927Z,66.25
2023-04-22T07:46:36.119Z,65.20
2023-04-22T07:49:09.586Z,67.37
2023-04-22T07:51:43.274Z,67.58
2023-04-22T07:54:26.685Z,64.34
2023-04-22T07:57:04.408Z,64.59
2023-04-22T07:59:33.620Z,62.97
2023-04-22T08:02:08.225Z,63.01
2023-04-22T08:05:10.373Z,63.13
2023-04-22T08:07:40.473Z,63.12
2023-04-22T08:10:12.179Z,61.49
2023-04-22T08:12:42.037Z,60.90
2023-04-22T08:15:11.056Z,61.41
2023-04-22T08:17:40.473Z,60.01
2023-04-22T08:20:14.718Z,60.15
2023-04-22T08:23:00.710Z,59.82
2023-04-22T08:25:35.199Z,60.25
2023-04-22T08:28:16.913Z,59.88
2023-04-22T08:30:46.691Z,60.96
2023-04-22T08:33:18.497Z,60.24
2023-04-22T08:35:47.184Z,58.64
2023-04-22T08:38:16.006Z,60.00
2023-04-22T08:40:44.003Z,56.46
2023-04-22T08:43:13.415Z,57.36
2023-04-22T08:45:42.039Z,54.17
2023-04-22T08:48:11.354Z,52.88
2023-04-22T08:50:42.465Z,52.63
2023-04-22T08:53:10.961Z,51.53
2023-04-22T08:55:39.590Z,51.61
2023-04-22T08:58:07.484Z,50.50
2023-04-22T09:00:39.079Z,50.92
2023-04-22T09:03:08.749Z,52.31
2023-04-22T09:05:39.047Z,49.12
2023-04-22T09:08:08.943Z,48.88
2023-04-22T09:10:38.963Z,48.76
2023-04-22T09:13:08.025Z,47.51
2023-04-22T09:15:35.954Z,46.85
2023-04-22T09:18:05.683Z,47.74
2023-04-22T09:20:34.775Z,47.24
2023-04-22T09:23:06.847Z,46.89
2023-04-22T09:25:39.515Z,45.80
2023-04-22T09:28:07.899Z,46.16
2023-04-22T09:30:37.873Z,47.12
2023-04-22T09:33:08.105Z,47.78
2023-04-22T09:35:37.569Z,45.84
2023-04-22T09:38:08.958Z,47.41
2023-04-22T09:40:39.671Z,46.40
2023-04-22T09:43:09.106Z,45.92
2023-04-22T09:45:39.207Z,44.89
2023-04-22T09:48:09.177Z,45.63
2023-04-22T09:50:38.146Z,45.38
2023-04-22T09:53:08.631Z,45.54
2023-04-22T09:55:41.433Z,43.40
2023-04-22T09:58:12.199Z,45.53
2023-04-22T10:00:43.229Z,44.02
2023-04-22T10:03:11.425Z,42.88
2023-04-22T10:05:40.988Z,43.53
2023-04-22T10:08:10.868Z,44.49
2023-04-22T10:10:41.189Z,43.75
2023-04-22T10:13:09.195Z,42.74
2023-04-22T10:15:40.456Z,44.34
2023-04-22T10:18:11.971Z,42.83
2023-04-22T10:20:43.156Z,44.07
2023-04-22T10:23:15.271Z,41.36
2023-04-22T10:25:48.909Z,41.33
2023-04-22T10:28:18.589Z,40.63
2023-04-22T10:30:47.221Z,39.66
2023-04-22T10:33:40.029Z,41.61
2023-04-22T10:36:10.922Z,39.64
2023-04-22T10:38:40.692Z,40.12
2023-04-22T10:41:15.220Z,38.76
2023-04-22T10:43:45.285Z,39.24
2023-04-22T10:46:58.338Z,38.32
2023-04-22T10:49:28.668Z,35.21
2023-04-22T10:52:01.060Z,35.28
2023-04-22T10:55:00.483Z,33.49
2023-04-22T10:57:38.240Z,33.27
2023-04-22T11:00:52.384Z,34.33
2023-04-22T11:03:30.500Z,34.76
2023-04-22T11:06:16.349Z,34.61
2023-04-22T11:08:49.483Z,36.19
2023-04-22T11:11:19.721Z,34.81
2023-04-22T11:13:51.775Z,33.52
2023-04-22T11:16:23.220Z,35.24
2023-04-22T11:18:52.294Z,33.44
2023-04-22T11:21:22.409Z,32.79
2023-04-22T11:23:53.767Z,32.80
2023-04-22T11:26:36.262Z,32.90
2023-04-22T11:29:06.637Z,33.54
2023-04-22T11:31:36.517Z,33.08
2023-04-22T11:34:04.691Z,33.44
2023-04-22T11:36:32.590Z,32.98
2023-04-22T11:39:00.494Z,29.12
2023-04-22T11:41:31.646Z,29.23
2023-04-22T11:44:01.474Z,28.99
2023-04-22T11:46:38.440Z,28.50
2023-04-22T11:49:17.189Z,28.76
2023-04-22T11:51:55.573Z,28.96
2023-04-22T11:54:34.076Z,29.87
2023-04-22T11:57:03.819Z,29.33
2023-04-22T11:59:31.703Z,29.90
2023-04-22T12:02:01.063Z,29.49
2023-04-22T12:04:28.965Z,30.03
2023-04-22T12:06:56.903Z,29.71
2023-04-22T12:09:26.557Z,28.81
2023-04-22T12:11:54.474Z,30.38
2023-04-22T12:14:22.360Z,29.97
2023-04-22T12:16:51.789Z,30.26
2023-04-22T12:19:27.043Z,30.29
2023-04-22T12:21:57.430Z,29.77
2023-04-22T12:24:29.335Z,29.74
2023-04-22T12:26:58.611Z,29.01
2023-04-22T12:29:33.440Z,28.80
2023-04-22T12:32:01.531Z,30.18
2023-04-22T12:34:31.428Z,29.93
2023-04-22T12:37:03.250Z,31.29
2023-04-22T12:39:32.333Z,30.19
2023-04-22T12:42:00.382Z,30.58
2023-04-22T12:44:28.650Z,31.00
2023-04-22T12:46:56.606Z,29.81
2023-04-22T12:49:24.629Z,30.75
2023-04-22T12:51:53.967Z,31.72
2023-04-22T12:54:22.673Z,30.94
2023-04-22T12:56:50.627Z,31.88
2023-04-22T12:59:18.561Z,31.48
2023-04-22T13:01:46.445Z,32.73
2023-04-22T13:04:14.603Z,32.99
2023-04-22T13:06:44.333Z,32.31
2023-04-22T13:09:34.484Z,32.17
2023-04-22T13:12:03.111Z,32.20
2023-04-22T13:14:31.084Z,33.08
2023-04-22T13:16:59.119Z,33.18
2023-04-22T13:19:27.209Z,33.33
2023-04-22T13:21:55.258Z,33.06
2023-04-22T13:24:24.572Z,32.75
2023-04-22T13:26:52.681Z,33.13
2023-04-22T13:29:22.178Z,33.03
2023-04-22T13:31:51.840Z,36.72
2023-04-22T13:34:21.293Z,39.52
2023-04-22T13:36:52.885Z,40.10
2023-04-22T13:39:22.880Z,41.85
2023-04-22T13:41:55.344Z,41.30
2023-04-22T13:44:26.079Z,40.37
2023-04-22T13:46:53.949Z,40.64
2023-04-22T13:49:21.860Z,40.61
2023-04-22T13:51:49.745Z,40.65
2023-04-22T13:54:17.654Z,39.93
2023-04-22T13:56:47.408Z,39.51
2023-04-22T13:59:17.324Z,38.95
2023-04-22T14:01:46.095Z,39.57
2023-04-22T14:04:14.850Z,39.70
2023-04-22T14:06:43.508Z,40.22
2023-04-22T14:09:11.592Z,40.59
2023-04-22T14:11:42.971Z,41.20
2023-04-22T14:14:12.554Z,40.58
2023-04-22T14:16:42.994Z,40.88
2023-04-22T14:19:11.540Z,39.95
2023-04-22T14:21:40.150Z,38.71
2023-04-22T14:24:08.234Z,37.73
2023-04-22T14:26:36.200Z,37.89
2023-04-22T14:29:04.213Z,37.85
2023-04-22T14:31:32.729Z,39.18
2023-04-22T14:34:02.035Z,38.16
2023-04-22T14:36:32.930Z,37.12
2023-04-22T14:39:02.435Z,37.79
2023-04-22T14:41:30.490Z,38.75
2023-04-22T14:43:59.074Z,39.90
2023-04-22T14:46:27.365Z,40.73
2023-04-22T14:48:55.312Z,40.08
2023-04-22T14:51:24.990Z,39.00
2023-04-22T14:53:52.817Z,38.45
2023-04-22T14:56:25.199Z,37.75
2023-04-22T14:58:53.674Z,36.77
2023-04-22T15:01:28.650Z,36.44
2023-04-22T15:03:57.580Z,37.33
2023-04-22T15:06:27.600Z,36.96
2023-04-22T15:08:55.929Z,36.67
2023-04-22T15:11:23.918Z,37.55
2023-04-22T15:13:52.011Z,37.09
2023-04-22T15:16:20.574Z,36.83
2023-04-22T15:18:51.029Z,37.46
2023-04-22T15:21:18.966Z,37.51
2023-04-22T15:23:48.199Z,37.14
2023-04-22T15:26:16.458Z,37.30
2023-04-22T15:28:44.394Z,37.41
2023-04-22T15:31:12.446Z,38.09
2023-04-22T15:33:40.504Z,37.20
2023-04-22T15:36:09.672Z,37.90
2023-04-22T15:38:38.981Z,38.35
2023-04-22T15:41:08.364Z,38.25
2023-04-22T15:43:36.552Z,37.85
2023-04-22T15:46:04.528Z,38.06
2023-04-22T15:48:33.439Z,38.73
2023-04-22T15:51:01.356Z,37.77
2023-04-22T15:53:29.382Z,38.10
2023-04-22T15:55:58.134Z,38.01
2023-04-22T15:58:28.985Z,38.44
2023-04-22T16:01:11.434Z,38.37
2023-04-22T16:03:45.912Z,38.58
2023-04-22T16:06:14.066Z,38.68
2023-04-22T16:08:42.552Z,39.30
2023-04-22T16:11:10.711Z,39.02
2023-04-22T16:13:40.111Z,38.71
2023-04-22T16:16:08.336Z,38.93
2023-04-22T16:18:36.475Z,38.71
2023-04-22T16:21:04.788Z,39.10
2023-04-22T16:23:35.209Z,39.00
2023-04-22T16:26:04.616Z,38.61
2023-04-22T16:28:33.073Z,38.86
2023-04-22T16:31:02.908Z,39.02
2023-04-22T16:33:32.210Z,39.24
2023-04-22T16:36:01.250Z,38.88
2023-04-22T16:38:29.219Z,39.32
2023-04-22T16:40:57.224Z,39.45
2023-04-22T16:43:25.176Z,39.06
2023-04-22T16:45:53.377Z,39.14
2023-04-22T16:48:41.082Z,39.17
2023-04-22T16:51:10.365Z,39.54
2023-04-22T16:53:39.026Z,39.43
2023-04-22T16:56:12.702Z,39.98
2023-04-22T16:58:49.896Z,39.64
2023-04-22T17:01:34.231Z,39.81
2023-04-22T17:04:06.493Z,40.12
2023-04-22T17:06:35.269Z,40.27
2023-04-22T17:09:04.405Z,40.66
2023-04-22T17:11:34.190Z,40.33
2023-04-22T17:14:04.693Z,40.33
2023-04-22T17:16:35.790Z,40.59
2023-04-22T17:19:09.760Z,40.89
2023-04-22T17:21:44.607Z,41.64
2023-04-22T17:24:18.528Z,41.66
2023-04-22T17:27:02.212Z,41.87
2023-04-22T17:29:39.128Z,41.69
2023-04-22T17:32:21.026Z,41.38
2023-04-22T17:35:00.476Z,41.75
2023-04-22T17:37:42.833Z,41.61
2023-04-22T17:40:14.017Z,42.58
2023-04-22T17:42:46.331Z,43.22
2023-04-22T17:45:18.399Z,44.21
2023-04-22T17:47:48.786Z,45.06
2023-04-22T17:50:18.350Z,44.68
2023-04-22T17:52:46.691Z,45.41
2023-04-22T17:55:14.840Z,45.64
2023-04-22T17:57:43.029Z,46.86
2023-04-22T18:00:15.621Z,47.96
2023-04-22T18:02:47.415Z,48.48
2023-04-22T18:05:16.495Z,49.51
2023-04-22T18:07:46.221Z,52.51
2023-04-22T18:10:14.679Z,54.11
2023-04-22T18:12:43.330Z,53.47
2023-04-22T18:15:12.107Z,57.35
2023-04-22T18:17:40.497Z,55.50
2023-04-22T18:20:17.149Z,56.15
2023-04-22T18:22:48.248Z,58.75
2023-04-22T18:25:16.702Z,59.53
2023-04-22T18:27:44.976Z,60.80
2023-04-22T18:30:13.470Z,59.67
2023-04-22T18:32:41.747Z,58.92
2023-04-22T18:35:10.591Z,59.55
2023-04-22T18:37:38.764Z,58.89
2023-04-22T18:40:09.701Z,55.28
2023-04-22T18:42:38.243Z,55.96
2023-04-22T18:45:07.954Z,57.95
2023-04-22T18:47:35.849Z,59.91
2023-04-22T18:50:03.816Z,59.02
2023-04-22T18:52:31.712Z,59.31
2023-04-22T18:54:59.728Z,58.56
2023-04-22T18:57:28.978Z,58.00
2023-04-22T18:59:57.063Z,58.27
2023-04-22T19:02:25.608Z,57.94
2023-04-22T19:04:55.440Z,58.29
2023-04-22T19:07:26.738Z,58.32
2023-04-22T19:09:54.768Z,58.24
2023-04-22T19:12:24.415Z,59.38
2023-04-22T19:14:53.710Z,60.40
2023-04-22T19:17:22.385Z,60.52
2023-04-22T19:19:56.414Z,59.89
2023-04-22T19:22:24.756Z,61.01
2023-04-22T19:24:53.039Z,61.17
2023-04-22T19:27:21.428Z,60.19
2023-04-22T19:29:51.671Z,60.48
2023-04-22T19:32:21.891Z,61.72
2023-04-22T19:34:50.222Z,60.95
2023-04-22T19:37:18.683Z,60.91
2023-04-22T19:39:47.650Z,61.13
2023-04-22T19:42:15.742Z,61.68
2023-04-22T19:44:46.638Z,60.22
2023-04-22T19:47:15.366Z,59.84
2023-04-22T19:49:45.275Z,60.45
2023-04-22T19:52:15.606Z,61.35
2023-04-22T19:54:47.551Z,60.69
2023-04-22T19:57:16.134Z,60.30
2023-04-22T19:59:46.011Z,61.53
2023-04-22T20:02:16.928Z,61.79
2023-04-22T20:04:46.967Z,61.49
2023-04-22T20:07:16.383Z,61.69
2023-04-22T20:09:46.508Z,61.17
2023-04-22T20:12:14.985Z,61.14
2023-04-22T20:14:45.022Z,61.86
2023-04-22T20:17:13.254Z,61.84
2023-04-22T20:19:41.942Z,61.96
2023-04-22T20:22:13.668Z,61.27
2023-04-22T20:24:43.654Z,61.58
2023-04-22T20:27:12.357Z,61.00
2023-04-22T20:29:41.547Z,61.30
2023-04-22T20:32:11.333Z,61.20
2023-04-22T20:34:40.189Z,60.32
2023-04-22T20:37:13.852Z,59.96
2023-04-22T20:39:44.850Z,60.30
2023-04-22T20:42:15.511Z,60.71
2023-04-22T20:44:43.838Z,61.29
2023-04-22T20:47:12.383Z,61.73
2023-04-22T20:49:42.189Z,60.90
2023-04-22T20:52:15.059Z,61.08
2023-04-22T20:54:46.777Z,61.36
2023-04-22T20:57:18.837Z,61.81
2023-04-22T20:59:49.882Z,61.63
2023-04-22T21:02:27.988Z,62.51
2023-04-22T21:04:59.192Z,61.49
2023-04-22T21:07:31.570Z,61.73
2023-04-22T21:10:00.480Z,61.80
2023-04-22T21:12:32.459Z,62.42
2023-04-22T21:15:01.871Z,62.86
2023-04-22T21:17:32.151Z,63.53
2023-04-22T21:20:00.610Z,63.97
2023-04-22T21:22:33.256Z,63.86
2023-04-22T21:25:02.262Z,62.95
2023-04-22T21:27:31.209Z,63.60
2023-04-22T21:29:59.816Z,63.96
2023-04-22T21:32:29.407Z,63.46
2023-04-22T21:34:57.720Z,64.33
2023-04-22T21:37:26.039Z,64.31
2023-04-22T21:39:55.976Z,64.34
2023-04-22T21:42:24.005Z,64.48
2023-04-22T21:44:52.258Z,63.40
2023-04-22T21:47:20.826Z,61.81
2023-04-22T21:49:51.498Z,62.13
2023-04-22T21:52:20.027Z,63.55
2023-04-22T21:54:48.225Z,63.42
2023-04-22T21:57:17.605Z,62.22
2023-04-22T21:59:45.524Z,61.57
2023-04-22T22:02:13.459Z,61.28
2023-04-22T22:04:42.254Z,61.21
2023-04-22T22:07:12.231Z,62.07
2023-04-22T22:09:41.957Z,61.97
2023-04-22T22:12:12.107Z,61.77
2023-04-22T22:14:41.655Z,61.67
2023-04-22T22:17:10.129Z,61.90
2023-04-22T22:19:38.929Z,61.94
2023-04-22T22:22:06.980Z,62.02
2023-04-22T22:24:35.161Z,62.52
2023-04-22T22:27:03.312Z,62.38
2023-04-22T22:29:31.233Z,62.01
2023-04-22T22:32:00.757Z,61.34
2023-04-22T22:34:29.368Z,62.06
2023-04-22T22:36:57.451Z,62.43
2023-04-22T22:39:27.883Z,62.82
2023-04-22T22:41:56.228Z,62.77
2023-04-22T22:44:24.149Z,63.31
2023-04-22T22:46:52.240Z,63.33
2023-04-22T22:49:21.754Z,63.75
2023-04-22T22:51:49.726Z,63.44
2023-04-22T22:54:17.790Z,62.00
2023-04-22T22:56:45.793Z,61.48
2023-04-22T22:59:13.701Z,61.61
2023-04-22T23:01:41.722Z,61.31
2023-04-22T23:04:09.979Z,60.83
2023-04-22T23:06:39.482Z,61.12
2023-04-22T23:09:07.543Z,60.63
2023-04-22T23:11:35.502Z,60.24
2023-04-22T23:14:05.920Z,60.25
2023-04-22T23:16:34.464Z,60.57
2023-04-22T23:19:04.222Z,61.65
2023-04-22T23:21:33.172Z,61.91
2023-04-22T23:24:03.658Z,62.29
2023-04-22T23:26:32.131Z,62.80
2023-04-22T23:29:00.574Z,62.29
2023-04-22T23:31:30.806Z,63.11
2023-04-22T23:34:02.516Z,63.46
2023-04-22T23:36:31.473Z,63.38
2023-04-22T23:38:59.630Z,63.81
2023-04-22T23:41:29.024Z,63.77
2023-04-22T23:43:56.991Z,63.35
2023-04-22T23:46:25.124Z,63.79
2023-04-22T23:48:53.470Z,64.17
2023-04-22T23:51:21.674Z,64.11
2023-04-22T23:53:49.573Z,64.89
2023-04-22T23:56:21.151Z,64.43
2023-04-22T23:58:51.237Z,64.24
